Terminal Aerodrome Forecast
Issued by NWS Twin Cities, MN

Home | Current Version | Previous Version | Graphics & Text | Print | Product List | Glossary On
Versions: 1 2 3 4 5 6 7 8 9 10 11 12 13 14 15 16 17 18 19 20 21 22 23 24
000
FTUS43 KMPX 290751 AAA
TAFEAU
TAF AMD
KEAU 290751Z 2908/3006 05004KT 6SM BR FEW200
      TEMPO 2908/2912 3SM BR BKN012
     FM291500 09004KT P6SM SCT020=

USA.gov is the U.S. government's official web portal to all federal, state and local government web resources and services.